sensor_id;sensor_type;location;lat;lon;timestamp;temperature;humidity
43151;DHT22;28755;51.478;5.702;2022-11-15T00:00:47;9.30;99.90
43151;DHT22;28755;51.478;5.702;2022-11-15T00:03:14;9.30;99.90
43151;DHT22;28755;51.478;5.702;2022-11-15T00:05:40;9.30;99.90
43151;DHT22;28755;51.478;5.702;2022-11-15T00:08:06;9.40;99.90
43151;DHT22;28755;51.478;5.702;2022-11-15T00:10:32;9.40;99.90
43151;DHT22;28755;51.478;5.702;2022-11-15T00:12:57;9.50;99.90
43151;DHT22;28755;51.478;5.702;2022-11-15T00:15:23;9.50;99.90
43151;DHT22;28755;51.478;5.702;2022-11-15T00:17:49;9.50;99.90
43151;DHT22;28755;51.478;5.702;2022-11-15T00:20:15;9.70;99.90
43151;DHT22;28755;51.478;5.702;2022-11-15T00:22:40;9.70;99.90
43151;DHT22;28755;51.478;5.702;2022-11-15T00:25:06;9.70;99.90
43151;DHT22;28755;51.478;5.702;2022-11-15T00:27:32;9.70;99.90
43151;DHT22;28755;51.478;5.702;2022-11-15T00:29:57;9.80;99.90
43151;DHT22;28755;51.478;5.702;2022-11-15T00:32:23;9.80;99.90
43151;DHT22;28755;51.478;5.702;2022-11-15T00:34:48;9.80;99.90
43151;DHT22;28755;51.478;5.702;2022-11-15T00:37:14;9.90;99.90
43151;DHT22;28755;51.478;5.702;2022-11-15T00:39:40;9.90;99.90
43151;DHT22;28755;51.478;5.702;2022-11-15T00:42:05;10.00;99.90
43151;DHT22;28755;51.478;5.702;2022-11-15T00:44:31;10.10;99.90
43151;DHT22;28755;51.478;5.702;2022-11-15T00:46:56;10.00;99.90
43151;DHT22;28755;51.478;5.702;2022-11-15T00:49:22;10.00;99.90
43151;DHT22;28755;51.478;5.702;2022-11-15T00:51:47;10.00;99.90
43151;DHT22;28755;51.478;5.702;2022-11-15T00:54:13;10.00;99.90
43151;DHT22;28755;51.478;5.702;2022-11-15T00:56:39;10.10;99.90
43151;DHT22;28755;51.478;5.702;2022-11-15T00:59:04;10.10;99.90
43151;DHT22;28755;51.478;5.702;2022-11-15T01:01:30;10.10;99.90
43151;DHT22;28755;51.478;5.702;2022-11-15T01:03:55;10.10;99.90
43151;DHT22;28755;51.478;5.702;2022-11-15T01:06:21;10.20;99.90
43151;DHT22;28755;51.478;5.702;2022-11-15T01:08:46;10.20;99.90
43151;DHT22;28755;51.478;5.702;2022-11-15T01:11:12;10.20;99.90
43151;DHT22;28755;51.478;5.702;2022-11-15T01:13:39;10.20;99.90
43151;DHT22;28755;51.478;5.702;2022-11-15T01:16:13;10.20;99.90
43151;DHT22;28755;51.478;5.702;2022-11-15T01:18:39;10.30;99.90
43151;DHT22;28755;51.478;5.702;2022-11-15T01:21:06;10.30;99.90
43151;DHT22;28755;51.478;5.702;2022-11-15T01:23:32;10.30;99.90
43151;DHT22;28755;51.478;5.702;2022-11-15T01:26:01;10.30;99.90
43151;DHT22;28755;51.478;5.702;2022-11-15T01:28:32;10.30;99.90
43151;DHT22;28755;51.478;5.702;2022-11-15T01:31:03;10.40;99.90
43151;DHT22;28755;51.478;5.702;2022-11-15T01:33:28;10.30;99.90
43151;DHT22;28755;51.478;5.702;2022-11-15T01:35:55;10.40;99.90
43151;DHT22;28755;51.478;5.702;2022-11-15T01:38:21;10.30;99.90
43151;DHT22;28755;51.478;5.702;2022-11-15T01:40:46;10.40;99.90
43151;DHT22;28755;51.478;5.702;2022-11-15T01:43:27;10.40;99.90
43151;DHT22;28755;51.478;5.702;2022-11-15T01:46:04;10.40;99.90
43151;DHT22;28755;51.478;5.702;2022-11-15T01:48:35;10.50;99.90
43151;DHT22;28755;51.478;5.702;2022-11-15T01:51:03;10.50;99.90
43151;DHT22;28755;51.478;5.702;2022-11-15T01:53:32;10.50;99.90
43151;DHT22;28755;51.478;5.702;2022-11-15T01:56:02;10.60;99.90
43151;DHT22;28755;51.478;5.702;2022-11-15T01:58:29;10.60;99.90
43151;DHT22;28755;51.478;5.702;2022-11-15T02:00:55;10.60;99.90
43151;DHT22;28755;51.478;5.702;2022-11-15T02:03:23;10.60;99.90
43151;DHT22;28755;51.478;5.702;2022-11-15T02:05:51;10.60;99.90
43151;DHT22;28755;51.478;5.702;2022-11-15T02:08:18;10.60;99.90
43151;DHT22;28755;51.478;5.702;2022-11-15T02:10:46;10.60;99.90
43151;DHT22;28755;51.478;5.702;2022-11-15T02:13:14;10.60;99.90
43151;DHT22;28755;51.478;5.702;2022-11-15T02:15:50;10.70;99.90
43151;DHT22;28755;51.478;5.702;2022-11-15T02:18:27;10.60;99.90
43151;DHT22;28755;51.478;5.702;2022-11-15T02:21:11;10.70;99.90
43151;DHT22;28755;51.478;5.702;2022-11-15T02:29:01;10.80;99.90
43151;DHT22;28755;51.478;5.702;2022-11-15T02:34:12;10.90;99.90
43151;DHT22;28755;51.478;5.702;2022-11-15T02:37:01;11.00;99.90
43151;DHT22;28755;51.478;5.702;2022-11-15T02:39:35;11.00;99.90
43151;DHT22;28755;51.478;5.702;2022-11-15T02:42:21;11.10;99.90
43151;DHT22;28755;51.478;5.702;2022-11-15T02:45:12;11.10;99.90
43151;DHT22;28755;51.478;5.702;2022-11-15T02:47:44;11.20;99.90
43151;DHT22;28755;51.478;5.702;2022-11-15T02:50:14;11.20;99.90
43151;DHT22;28755;51.478;5.702;2022-11-15T02:52:43;11.20;99.90
43151;DHT22;28755;51.478;5.702;2022-11-15T02:55:48;11.20;99.90
43151;DHT22;28755;51.478;5.702;2022-11-15T02:58:34;11.30;99.90
43151;DHT22;28755;51.478;5.702;2022-11-15T03:01:21;11.30;99.90
43151;DHT22;28755;51.478;5.702;2022-11-15T03:07:05;11.30;99.90
43151;DHT22;28755;51.478;5.702;2022-11-15T03:09:57;11.40;99.90
43151;DHT22;28755;51.478;5.702;2022-11-15T03:12:39;11.40;99.90
43151;DHT22;28755;51.478;5.702;2022-11-15T03:15:12;11.30;99.90
43151;DHT22;28755;51.478;5.702;2022-11-15T03:17:52;11.40;99.90
43151;DHT22;28755;51.478;5.702;2022-11-15T03:20:20;11.40;99.90
43151;DHT22;28755;51.478;5.702;2022-11-15T03:22:47;11.40;99.90
43151;DHT22;28755;51.478;5.702;2022-11-15T03:25:19;11.40;99.90
43151;DHT22;28755;51.478;5.702;2022-11-15T03:27:50;11.40;99.90
43151;DHT22;28755;51.478;5.702;2022-11-15T03:30:17;11.40;99.90
43151;DHT22;28755;51.478;5.702;2022-11-15T03:32:56;11.50;99.90
43151;DHT22;28755;51.478;5.702;2022-11-15T03:35:28;11.50;99.90
43151;DHT22;28755;51.478;5.702;2022-11-15T03:40:41;11.50;99.90
43151;DHT22;28755;51.478;5.702;2022-11-15T03:43:16;11.60;99.90
43151;DHT22;28755;51.478;5.702;2022-11-15T03:46:02;11.60;99.90
43151;DHT22;28755;51.478;5.702;2022-11-15T03:51:23;11.60;99.90
43151;DHT22;28755;51.478;5.702;2022-11-15T03:53:49;11.60;99.90
43151;DHT22;28755;51.478;5.702;2022-11-15T03:56:14;11.60;99.90
43151;DHT22;28755;51.478;5.702;2022-11-15T03:58:40;11.60;99.90
43151;DHT22;28755;51.478;5.702;2022-11-15T04:01:05;11.60;99.90
43151;DHT22;28755;51.478;5.702;2022-11-15T04:03:31;11.60;99.90
43151;DHT22;28755;51.478;5.702;2022-11-15T04:05:56;11.70;99.90
43151;DHT22;28755;51.478;5.702;2022-11-15T04:08:22;11.70;99.90
43151;DHT22;28755;51.478;5.702;2022-11-15T04:10:51;11.70;99.90
43151;DHT22;28755;51.478;5.702;2022-11-15T04:13:17;11.60;99.90
43151;DHT22;28755;51.478;5.702;2022-11-15T04:15:42;11.70;99.90
43151;DHT22;28755;51.478;5.702;2022-11-15T04:18:08;11.70;99.90
43151;DHT22;28755;51.478;5.702;2022-11-15T04:20:33;11.70;99.90
43151;DHT22;28755;51.478;5.702;2022-11-15T04:23:20;11.70;99.90
43151;DHT22;28755;51.478;5.702;2022-11-15T04:26:11;11.60;99.90
43151;DHT22;28755;51.478;5.702;2022-11-15T04:28:37;11.70;99.90
43151;DHT22;28755;51.478;5.702;2022-11-15T04:31:21;11.70;99.90
43151;DHT22;28755;51.478;5.702;2022-11-15T04:33:47;11.70;99.90
43151;DHT22;28755;51.478;5.702;2022-11-15T04:36:12;11.70;99.90
43151;DHT22;28755;51.478;5.702;2022-11-15T04:38:56;11.70;99.90
43151;DHT22;28755;51.478;5.702;2022-11-15T04:41:22;11.70;99.90
43151;DHT22;28755;51.478;5.702;2022-11-15T04:43:47;11.70;99.90
43151;DHT22;28755;51.478;5.702;2022-11-15T04:46:13;11.70;99.90
43151;DHT22;28755;51.478;5.702;2022-11-15T04:48:39;11.70;99.90
43151;DHT22;28755;51.478;5.702;2022-11-15T04:51:04;11.80;99.90
43151;DHT22;28755;51.478;5.702;2022-11-15T04:53:30;11.70;99.90
43151;DHT22;28755;51.478;5.702;2022-11-15T04:55:55;11.80;99.90
43151;DHT22;28755;51.478;5.702;2022-11-15T04:58:21;11.70;99.90
43151;DHT22;28755;51.478;5.702;2022-11-15T05:00:46;11.70;99.90
43151;DHT22;28755;51.478;5.702;2022-11-15T05:03:12;11.70;99.90
43151;DHT22;28755;51.478;5.702;2022-11-15T05:05:57;11.70;99.90
43151;DHT22;28755;51.478;5.702;2022-11-15T05:08:23;11.70;99.90
43151;DHT22;28755;51.478;5.702;2022-11-15T05:10:48;11.70;99.90
43151;DHT22;28755;51.478;5.702;2022-11-15T05:13:14;11.70;99.90
43151;DHT22;28755;51.478;5.702;2022-11-15T05:15:40;11.70;99.90
43151;DHT22;28755;51.478;5.702;2022-11-15T05:18:05;11.70;99.90
43151;DHT22;28755;51.478;5.702;2022-11-15T05:20:31;11.70;99.90
43151;DHT22;28755;51.478;5.702;2022-11-15T05:22:56;11.60;99.90
43151;DHT22;28755;51.478;5.702;2022-11-15T05:25:22;11.70;99.90
43151;DHT22;28755;51.478;5.702;2022-11-15T05:27:48;11.70;99.90
43151;DHT22;28755;51.478;5.702;2022-11-15T05:30:15;11.70;99.90
43151;DHT22;28755;51.478;5.702;2022-11-15T05:32:40;11.70;99.90
43151;DHT22;28755;51.478;5.702;2022-11-15T05:35:08;11.70;99.90
43151;DHT22;28755;51.478;5.702;2022-11-15T05:37:35;11.70;99.90
43151;DHT22;28755;51.478;5.702;2022-11-15T05:40:01;11.70;99.90
43151;DHT22;28755;51.478;5.702;2022-11-15T05:42:27;11.70;99.90
43151;DHT22;28755;51.478;5.702;2022-11-15T05:44:53;11.70;99.90
43151;DHT22;28755;51.478;5.702;2022-11-15T05:47:24;11.70;99.90
43151;DHT22;28755;51.478;5.702;2022-11-15T05:49:52;11.60;99.90
43151;DHT22;28755;51.478;5.702;2022-11-15T05:52:21;11.70;99.90
43151;DHT22;28755;51.478;5.702;2022-11-15T05:54:48;11.80;99.90
43151;DHT22;28755;51.478;5.702;2022-11-15T05:57:14;11.70;99.90
43151;DHT22;28755;51.478;5.702;2022-11-15T05:59:41;11.70;99.90
43151;DHT22;28755;51.478;5.702;2022-11-15T06:02:09;11.70;99.90
43151;DHT22;28755;51.478;5.702;2022-11-15T06:04:35;11.70;99.90
43151;DHT22;28755;51.478;5.702;2022-11-15T06:07:10;11.70;99.90
43151;DHT22;28755;51.478;5.702;2022-11-15T06:13:07;11.70;99.90
43151;DHT22;28755;51.478;5.702;2022-11-15T06:15:33;11.70;99.90
43151;DHT22;28755;51.478;5.702;2022-11-15T06:18:02;11.70;99.90
43151;DHT22;28755;51.478;5.702;2022-11-15T06:20:29;11.70;99.90
43151;DHT22;28755;51.478;5.702;2022-11-15T06:23:02;11.70;99.90
43151;DHT22;28755;51.478;5.702;2022-11-15T06:25:29;11.70;99.90
43151;DHT22;28755;51.478;5.702;2022-11-15T06:27:56;11.60;99.90
43151;DHT22;28755;51.478;5.702;2022-11-15T06:30:23;11.70;99.90
43151;DHT22;28755;51.478;5.702;2022-11-15T06:32:49;11.70;99.90
43151;DHT22;28755;51.478;5.702;2022-11-15T06:35:15;11.70;99.90
43151;DHT22;28755;51.478;5.702;2022-11-15T06:37:41;11.80;99.90
43151;DHT22;28755;51.478;5.702;2022-11-15T06:40:09;11.90;99.90
43151;DHT22;28755;51.478;5.702;2022-11-15T06:42:35;11.70;99.90
43151;DHT22;28755;51.478;5.702;2022-11-15T06:45:00;11.70;99.90
43151;DHT22;28755;51.478;5.702;2022-11-15T06:47:26;11.70;99.90
43151;DHT22;28755;51.478;5.702;2022-11-15T06:49:51;11.70;99.90
43151;DHT22;28755;51.478;5.702;2022-11-15T06:52:17;11.70;99.90
43151;DHT22;28755;51.478;5.702;2022-11-15T06:54:46;11.60;99.90
43151;DHT22;28755;51.478;5.702;2022-11-15T06:57:12;11.70;99.90
43151;DHT22;28755;51.478;5.702;2022-11-15T06:59:38;11.60;99.90
43151;DHT22;28755;51.478;5.702;2022-11-15T07:02:03;11.60;99.90
43151;DHT22;28755;51.478;5.702;2022-11-15T07:04:29;11.60;99.90
43151;DHT22;28755;51.478;5.702;2022-11-15T07:06:55;11.60;99.90
43151;DHT22;28755;51.478;5.702;2022-11-15T07:09:20;11.60;99.90
43151;DHT22;28755;51.478;5.702;2022-11-15T07:11:46;11.60;99.90
43151;DHT22;28755;51.478;5.702;2022-11-15T07:14:11;11.60;99.90
43151;DHT22;28755;51.478;5.702;2022-11-15T07:16:37;11.50;99.90
43151;DHT22;28755;51.478;5.702;2022-11-15T07:19:03;11.40;99.90
43151;DHT22;28755;51.478;5.702;2022-11-15T07:21:28;11.50;99.90
43151;DHT22;28755;51.478;5.702;2022-11-15T07:23:54;11.50;99.90
43151;DHT22;28755;51.478;5.702;2022-11-15T07:26:20;11.50;99.90
43151;DHT22;28755;51.478;5.702;2022-11-15T07:28:46;11.40;99.90
43151;DHT22;28755;51.478;5.702;2022-11-15T07:31:11;11.50;99.90
43151;DHT22;28755;51.478;5.702;2022-11-15T07:33:37;11.40;99.90
43151;DHT22;28755;51.478;5.702;2022-11-15T07:36:05;11.40;99.90
43151;DHT22;28755;51.478;5.702;2022-11-15T07:38:31;11.40;99.90
43151;DHT22;28755;51.478;5.702;2022-11-15T07:40:59;11.50;99.90
43151;DHT22;28755;51.478;5.702;2022-11-15T07:43:25;11.40;99.90
43151;DHT22;28755;51.478;5.702;2022-11-15T07:45:53;11.50;99.90
43151;DHT22;28755;51.478;5.702;2022-11-15T07:48:19;11.40;99.90
43151;DHT22;28755;51.478;5.702;2022-11-15T07:50:45;11.40;99.90
43151;DHT22;28755;51.478;5.702;2022-11-15T07:53:10;11.40;99.90
43151;DHT22;28755;51.478;5.702;2022-11-15T07:55:37;11.50;99.90
43151;DHT22;28755;51.478;5.702;2022-11-15T07:58:03;11.50;99.90
43151;DHT22;28755;51.478;5.702;2022-11-15T08:00:29;11.50;99.90
43151;DHT22;28755;51.478;5.702;2022-11-15T08:03:12;11.60;99.90
43151;DHT22;28755;51.478;5.702;2022-11-15T08:05:40;11.50;99.90
43151;DHT22;28755;51.478;5.702;2022-11-15T08:08:06;11.60;99.90
43151;DHT22;28755;51.478;5.702;2022-11-15T08:10:31;11.50;99.90
43151;DHT22;28755;51.478;5.702;2022-11-15T08:12:58;11.70;99.90
43151;DHT22;28755;51.478;5.702;2022-11-15T08:15:25;11.70;99.90
43151;DHT22;28755;51.478;5.702;2022-11-15T08:17:57;11.70;99.90
43151;DHT22;28755;51.478;5.702;2022-11-15T08:20:24;11.70;99.90
43151;DHT22;28755;51.478;5.702;2022-11-15T08:22:50;11.70;99.90
43151;DHT22;28755;51.478;5.702;2022-11-15T08:25:16;11.60;99.90
43151;DHT22;28755;51.478;5.702;2022-11-15T08:27:41;11.60;99.90
43151;DHT22;28755;51.478;5.702;2022-11-15T08:30:07;11.60;99.90
43151;DHT22;28755;51.478;5.702;2022-11-15T08:32:33;11.60;99.90
43151;DHT22;28755;51.478;5.702;2022-11-15T08:34:59;11.50;99.90
43151;DHT22;28755;51.478;5.702;2022-11-15T08:37:24;11.50;99.90
43151;DHT22;28755;51.478;5.702;2022-11-15T08:39:50;11.50;99.90
43151;DHT22;28755;51.478;5.702;2022-11-15T08:42:15;11.50;99.90
43151;DHT22;28755;51.478;5.702;2022-11-15T08:44:41;11.50;99.90
43151;DHT22;28755;51.478;5.702;2022-11-15T08:47:08;11.40;99.90
43151;DHT22;28755;51.478;5.702;2022-11-15T08:49:36;11.50;99.90
43151;DHT22;28755;51.478;5.702;2022-11-15T08:52:01;11.60;99.90
43151;DHT22;28755;51.478;5.702;2022-11-15T08:54:30;11.70;99.90
43151;DHT22;28755;51.478;5.702;2022-11-15T08:56:55;12.20;99.90
43151;DHT22;28755;51.478;5.702;2022-11-15T08:59:21;12.90;99.90
43151;DHT22;28755;51.478;5.702;2022-11-15T09:01:47;13.90;99.90
43151;DHT22;28755;51.478;5.702;2022-11-15T09:04:13;14.70;99.90
43151;DHT22;28755;51.478;5.702;2022-11-15T09:06:38;14.40;99.90
43151;DHT22;28755;51.478;5.702;2022-11-15T09:09:04;13.80;99.90
43151;DHT22;28755;51.478;5.702;2022-11-15T09:11:29;13.70;99.90
43151;DHT22;28755;51.478;5.702;2022-11-15T09:13:55;14.20;99.90
43151;DHT22;28755;51.478;5.702;2022-11-15T09:16:21;13.90;99.90
43151;DHT22;28755;51.478;5.702;2022-11-15T09:18:46;13.70;99.90
43151;DHT22;28755;51.478;5.702;2022-11-15T09:21:12;13.30;99.90
43151;DHT22;28755;51.478;5.702;2022-11-15T09:23:38;13.30;99.90
43151;DHT22;28755;51.478;5.702;2022-11-15T09:26:04;13.10;99.90
43151;DHT22;28755;51.478;5.702;2022-11-15T09:28:31;13.60;99.90
43151;DHT22;28755;51.478;5.702;2022-11-15T09:30:57;13.80;99.90
43151;DHT22;28755;51.478;5.702;2022-11-15T09:33:24;14.40;99.90
43151;DHT22;28755;51.478;5.702;2022-11-15T09:35:49;15.10;99.90
43151;DHT22;28755;51.478;5.702;2022-11-15T09:38:15;17.10;99.90
43151;DHT22;28755;51.478;5.702;2022-11-15T09:40:41;17.80;99.90
43151;DHT22;28755;51.478;5.702;2022-11-15T09:43:25;17.90;99.90
43151;DHT22;28755;51.478;5.702;2022-11-15T09:49:00;19.60;99.90
43151;DHT22;28755;51.478;5.702;2022-11-15T09:51:37;20.10;99.90
43151;DHT22;28755;51.478;5.702;2022-11-15T09:54:27;19.50;99.90
43151;DHT22;28755;51.478;5.702;2022-11-15T09:56:56;19.00;99.90
43151;DHT22;28755;51.478;5.702;2022-11-15T10:02:33;17.10;99.90
43151;DHT22;28755;51.478;5.702;2022-11-15T10:05:02;16.40;99.90
43151;DHT22;28755;51.478;5.702;2022-11-15T10:07:59;16.20;99.90
43151;DHT22;28755;51.478;5.702;2022-11-15T10:13:03;16.20;99.90
43151;DHT22;28755;51.478;5.702;2022-11-15T10:15:29;16.50;99.90
43151;DHT22;28755;51.478;5.702;2022-11-15T10:18:26;16.70;99.90
43151;DHT22;28755;51.478;5.702;2022-11-15T10:21:08;16.70;99.90
43151;DHT22;28755;51.478;5.702;2022-11-15T10:23:38;17.20;99.90
43151;DHT22;28755;51.478;5.702;2022-11-15T10:26:04;17.60;99.90
43151;DHT22;28755;51.478;5.702;2022-11-15T10:28:33;17.60;99.90
43151;DHT22;28755;51.478;5.702;2022-11-15T10:31:00;17.10;99.90
43151;DHT22;28755;51.478;5.702;2022-11-15T10:33:29;17.70;99.90
43151;DHT22;28755;51.478;5.702;2022-11-15T10:36:16;18.40;99.90
43151;DHT22;28755;51.478;5.702;2022-11-15T10:41:14;16.70;99.90
43151;DHT22;28755;51.478;5.702;2022-11-15T10:43:41;16.50;99.90
43151;DHT22;28755;51.478;5.702;2022-11-15T10:46:37;15.50;99.90
43151;DHT22;28755;51.478;5.702;2022-11-15T10:49:25;14.70;99.90
43151;DHT22;28755;51.478;5.702;2022-11-15T10:54:30;15.20;99.90
43151;DHT22;28755;51.478;5.702;2022-11-15T10:56:59;15.10;99.90
43151;DHT22;28755;51.478;5.702;2022-11-15T10:59:32;15.10;99.90
43151;DHT22;28755;51.478;5.702;2022-11-15T11:02:02;14.90;99.90
43151;DHT22;28755;51.478;5.702;2022-11-15T11:04:27;14.80;99.90
43151;DHT22;28755;51.478;5.702;2022-11-15T11:06:54;14.80;99.90
43151;DHT22;28755;51.478;5.702;2022-11-15T11:09:37;14.70;99.90
43151;DHT22;28755;51.478;5.702;2022-11-15T11:12:05;14.60;99.90
43151;DHT22;28755;51.478;5.702;2022-11-15T11:14:36;14.80;99.90
43151;DHT22;28755;51.478;5.702;2022-11-15T11:17:23;15.40;99.90
43151;DHT22;28755;51.478;5.702;2022-11-15T11:20:09;16.10;99.90
43151;DHT22;28755;51.478;5.702;2022-11-15T11:22:50;16.30;99.90
43151;DHT22;28755;51.478;5.702;2022-11-15T11:25:36;18.00;99.90
43151;DHT22;28755;51.478;5.702;2022-11-15T11:29:01;19.70;99.90
43151;DHT22;28755;51.478;5.702;2022-11-15T11:34:28;20.90;99.90
43151;DHT22;28755;51.478;5.702;2022-11-15T11:37:36;20.60;99.90
43151;DHT22;28755;51.478;5.702;2022-11-15T11:40:29;20.80;99.90
43151;DHT22;28755;51.478;5.702;2022-11-15T11:48:18;19.40;99.90
43151;DHT22;28755;51.478;5.702;2022-11-15T11:50:46;19.50;99.90
43151;DHT22;28755;51.478;5.702;2022-11-15T11:53:17;19.30;99.90
43151;DHT22;28755;51.478;5.702;2022-11-15T11:55:53;19.80;99.90
43151;DHT22;28755;51.478;5.702;2022-11-15T11:58:28;19.30;99.90
43151;DHT22;28755;51.478;5.702;2022-11-15T12:01:34;19.10;99.90
43151;DHT22;28755;51.478;5.702;2022-11-15T12:04:11;18.70;99.90
43151;DHT22;28755;51.478;5.702;2022-11-15T12:06:47;19.10;99.90
43151;DHT22;28755;51.478;5.702;2022-11-15T12:09:21;20.10;99.90
43151;DHT22;28755;51.478;5.702;2022-11-15T12:11:52;20.40;99.90
43151;DHT22;28755;51.478;5.702;2022-11-15T12:14:49;20.00;99.90
43151;DHT22;28755;51.478;5.702;2022-11-15T12:17:19;19.80;99.90
43151;DHT22;28755;51.478;5.702;2022-11-15T12:19:47;19.30;99.90
43151;DHT22;28755;51.478;5.702;2022-11-15T12:27:34;17.90;99.90
43151;DHT22;28755;51.478;5.702;2022-11-15T12:30:07;17.40;99.90
43151;DHT22;28755;51.478;5.702;2022-11-15T12:32:39;17.20;99.90
43151;DHT22;28755;51.478;5.702;2022-11-15T12:35:21;17.10;99.90
43151;DHT22;28755;51.478;5.702;2022-11-15T12:37:55;17.00;99.90
43151;DHT22;28755;51.478;5.702;2022-11-15T12:45:44;16.30;99.90
43151;DHT22;28755;51.478;5.702;2022-11-15T13:06:50;16.20;99.90
43151;DHT22;28755;51.478;5.702;2022-11-15T13:11:56;16.00;99.90
43151;DHT22;28755;51.478;5.702;2022-11-15T13:17:10;16.00;99.90
43151;DHT22;28755;51.478;5.702;2022-11-15T13:19:38;16.00;99.90
43151;DHT22;28755;51.478;5.702;2022-11-15T13:22:08;16.00;99.90
43151;DHT22;28755;51.478;5.702;2022-11-15T13:24:52;15.60;99.90
43151;DHT22;28755;51.478;5.702;2022-11-15T13:27:19;15.40;99.90
43151;DHT22;28755;51.478;5.702;2022-11-15T13:29:45;15.20;99.90
43151;DHT22;28755;51.478;5.702;2022-11-15T13:32:13;15.10;99.90
43151;DHT22;28755;51.478;5.702;2022-11-15T13:34:43;15.00;99.90
43151;DHT22;28755;51.478;5.702;2022-11-15T13:37:32;15.00;99.90
43151;DHT22;28755;51.478;5.702;2022-11-15T13:40:23;14.90;99.90
43151;DHT22;28755;51.478;5.702;2022-11-15T13:42:49;14.90;99.90
43151;DHT22;28755;51.478;5.702;2022-11-15T13:45:17;14.90;99.90
43151;DHT22;28755;51.478;5.702;2022-11-15T13:47:43;14.70;99.90
43151;DHT22;28755;51.478;5.702;2022-11-15T13:50:13;14.70;99.90
43151;DHT22;28755;51.478;5.702;2022-11-15T13:52:41;14.80;99.90
43151;DHT22;28755;51.478;5.702;2022-11-15T13:57:55;14.60;99.90
43151;DHT22;28755;51.478;5.702;2022-11-15T14:00:40;14.70;99.90
43151;DHT22;28755;51.478;5.702;2022-11-15T14:03:24;14.60;99.90
43151;DHT22;28755;51.478;5.702;2022-11-15T14:06:05;14.60;99.90
43151;DHT22;28755;51.478;5.702;2022-11-15T14:08:41;14.50;99.90
43151;DHT22;28755;51.478;5.702;2022-11-15T14:11:16;14.40;99.90
43151;DHT22;28755;51.478;5.702;2022-11-15T14:13:58;14.30;99.90
43151;DHT22;28755;51.478;5.702;2022-11-15T14:16:36;14.30;99.90
43151;DHT22;28755;51.478;5.702;2022-11-15T14:19:04;14.20;99.90
43151;DHT22;28755;51.478;5.702;2022-11-15T14:21:31;14.20;99.90
43151;DHT22;28755;51.478;5.702;2022-11-15T14:24:19;14.20;99.90
43151;DHT22;28755;51.478;5.702;2022-11-15T14:26:46;14.20;99.90
43151;DHT22;28755;51.478;5.702;2022-11-15T14:29:28;14.30;99.90
43151;DHT22;28755;51.478;5.702;2022-11-15T14:32:12;14.30;99.90
43151;DHT22;28755;51.478;5.702;2022-11-15T14:34:38;14.20;99.90
43151;DHT22;28755;51.478;5.702;2022-11-15T14:37:03;14.20;99.90
43151;DHT22;28755;51.478;5.702;2022-11-15T14:39:29;14.30;99.90
43151;DHT22;28755;51.478;5.702;2022-11-15T14:41:54;14.20;99.90
43151;DHT22;28755;51.478;5.702;2022-11-15T14:44:27;14.20;99.90
43151;DHT22;28755;51.478;5.702;2022-11-15T14:46:53;14.30;99.90
43151;DHT22;28755;51.478;5.702;2022-11-15T14:49:18;14.30;99.90
43151;DHT22;28755;51.478;5.702;2022-11-15T14:51:44;14.20;99.90
43151;DHT22;28755;51.478;5.702;2022-11-15T14:54:10;14.20;99.90
43151;DHT22;28755;51.478;5.702;2022-11-15T14:56:36;14.20;99.90
43151;DHT22;28755;51.478;5.702;2022-11-15T14:59:02;14.20;99.90
43151;DHT22;28755;51.478;5.702;2022-11-15T15:01:27;14.10;99.90
43151;DHT22;28755;51.478;5.702;2022-11-15T15:03:53;14.20;99.90
43151;DHT22;28755;51.478;5.702;2022-11-15T15:06:22;14.10;99.90
43151;DHT22;28755;51.478;5.702;2022-11-15T15:08:48;14.20;99.90
43151;DHT22;28755;51.478;5.702;2022-11-15T15:11:27;14.10;99.90
43151;DHT22;28755;51.478;5.702;2022-11-15T15:13:54;14.00;99.90
43151;DHT22;28755;51.478;5.702;2022-11-15T15:16:22;14.00;99.90
43151;DHT22;28755;51.478;5.702;2022-11-15T15:18:48;14.00;99.90
43151;DHT22;28755;51.478;5.702;2022-11-15T15:21:34;14.00;99.90
43151;DHT22;28755;51.478;5.702;2022-11-15T15:24:00;14.00;99.90
43151;DHT22;28755;51.478;5.702;2022-11-15T15:26:25;13.90;99.90
43151;DHT22;28755;51.478;5.702;2022-11-15T15:28:51;13.90;99.90
43151;DHT22;28755;51.478;5.702;2022-11-15T15:31:17;13.90;99.90
43151;DHT22;28755;51.478;5.702;2022-11-15T15:33:43;13.90;99.90
43151;DHT22;28755;51.478;5.702;2022-11-15T15:36:12;14.00;99.90
43151;DHT22;28755;51.478;5.702;2022-11-15T15:38:39;13.90;99.90
43151;DHT22;28755;51.478;5.702;2022-11-15T15:41:13;13.90;99.90
43151;DHT22;28755;51.478;5.702;2022-11-15T15:43:39;13.80;99.90
43151;DHT22;28755;51.478;5.702;2022-11-15T15:46:09;13.80;99.90
43151;DHT22;28755;51.478;5.702;2022-11-15T15:48:35;13.70;99.90
43151;DHT22;28755;51.478;5.702;2022-11-15T15:51:02;13.70;99.90
43151;DHT22;28755;51.478;5.702;2022-11-15T15:53:28;13.70;99.90
43151;DHT22;28755;51.478;5.702;2022-11-15T15:55:54;13.70;99.90
43151;DHT22;28755;51.478;5.702;2022-11-15T15:58:19;13.70;99.90
43151;DHT22;28755;51.478;5.702;2022-11-15T16:00:45;13.70;99.90
43151;DHT22;28755;51.478;5.702;2022-11-15T16:03:10;13.70;99.90
43151;DHT22;28755;51.478;5.702;2022-11-15T16:05:36;13.60;99.90
43151;DHT22;28755;51.478;5.702;2022-11-15T16:08:02;13.60;99.90
43151;DHT22;28755;51.478;5.702;2022-11-15T16:10:32;13.60;99.90
43151;DHT22;28755;51.478;5.702;2022-11-15T16:12:59;13.60;99.90
43151;DHT22;28755;51.478;5.702;2022-11-15T16:15:27;13.60;99.90
43151;DHT22;28755;51.478;5.702;2022-11-15T16:17:59;13.60;99.90
43151;DHT22;28755;51.478;5.702;2022-11-15T16:20:40;13.60;99.90
43151;DHT22;28755;51.478;5.702;2022-11-15T16:23:09;13.50;99.90
43151;DHT22;28755;51.478;5.702;2022-11-15T16:25:55;13.60;99.90
43151;DHT22;28755;51.478;5.702;2022-11-15T16:28:31;13.50;99.90
43151;DHT22;28755;51.478;5.702;2022-11-15T16:31:11;13.50;99.90
43151;DHT22;28755;51.478;5.702;2022-11-15T16:33:37;13.60;99.90
43151;DHT22;28755;51.478;5.702;2022-11-15T16:36:05;13.50;99.90
43151;DHT22;28755;51.478;5.702;2022-11-15T16:38:31;13.50;99.90
43151;DHT22;28755;51.478;5.702;2022-11-15T16:40:57;13.40;99.90
43151;DHT22;28755;51.478;5.702;2022-11-15T16:43:22;13.40;99.90
43151;DHT22;28755;51.478;5.702;2022-11-15T16:45:49;13.30;99.90
43151;DHT22;28755;51.478;5.702;2022-11-15T16:48:23;13.30;99.90
43151;DHT22;28755;51.478;5.702;2022-11-15T16:50:50;13.30;99.90
43151;DHT22;28755;51.478;5.702;2022-11-15T16:53:15;13.10;99.90
43151;DHT22;28755;51.478;5.702;2022-11-15T16:55:41;13.10;99.90
43151;DHT22;28755;51.478;5.702;2022-11-15T16:58:08;12.90;99.90
43151;DHT22;28755;51.478;5.702;2022-11-15T17:00:34;13.00;99.90
43151;DHT22;28755;51.478;5.702;2022-11-15T17:02:59;12.90;99.90
43151;DHT22;28755;51.478;5.702;2022-11-15T17:05:25;12.90;99.90
43151;DHT22;28755;51.478;5.702;2022-11-15T17:07:54;12.80;99.90
43151;DHT22;28755;51.478;5.702;2022-11-15T17:10:24;12.70;99.90